Time;durP1;ratioP1;P1;durP2;ratioP2;P2;SDS_P1;SDS_P2;PMS_P1;PMS_P2;Temp;Humidity;BMP_temperature;BMP_pressure;BME280_temperature;BME280_humidity;BME280_pressure;Samples;Min_cycle;Max_cycle;Signal;HPM_P1;HPM_P2
2022/09/13 00:00:45;;;;;;;;;;;;;;;24.80;85.62;98428.50;5071723;28;19927;-40
2022/09/13 00:03:11;;;;;;;;;;;;;;;25.05;83.67;98426.84;5052228;28;19975;-40
2022/09/13 00:05:36;;;;;;;;;;;;;;;25.18;83.69;98433.50;5073220;28;20477;-40
2022/09/13 00:08:02;;;;;;;;;;;;;;;25.16;83.63;98433.66;5072802;28;19920;-40
2022/09/13 00:10:27;;;;;;;;;;;;;;;24.89;84.86;98437.28;5073036;28;19951;-40
2022/09/13 00:12:52;;;;;;;;;;;;;;;25.28;83.91;98421.06;5072923;28;19924;-40
2022/09/13 00:15:18;;;;;;;;;;;;;;;24.86;84.75;98413.91;5070774;28;19920;-40
2022/09/13 00:17:43;;;;;;;;;;;;;;;24.94;84.66;98408.66;5073612;28;19912;-40
2022/09/13 00:20:08;;;;;;;;;;;;;;;24.97;84.01;98400.44;5072621;28;19971;-40
2022/09/13 00:22:34;;;;;;;;;;;;;;;25.10;84.35;98404.47;5054004;28;19920;-40
2022/09/13 00:24:59;;;;;;;;;;;;;;;25.07;83.28;98410.06;5070292;28;19924;-40
2022/09/13 00:27:24;;;;;;;;;;;;;;;25.07;83.87;98410.06;5072166;28;20015;-40
2022/09/13 00:29:50;;;;;;;;;;;;;;;25.01;83.64;98400.97;5073172;28;20011;-41
2022/09/13 00:32:15;;;;;;;;;;;;;;;24.68;84.58;98406.03;5070272;28;19920;-40
2022/09/13 00:34:41;;;;;;;;;;;;;;;25.32;83.56;98396.06;5072350;28;19923;-40
2022/09/13 00:37:07;;;;;;;;;;;;;;;25.16;83.52;98394.13;5052498;28;20353;-40
2022/09/13 00:39:32;;;;;;;;;;;;;;;24.95;85.08;98391.88;5072806;28;19912;-40
2022/09/13 00:41:58;;;;;;;;;;;;;;;24.90;84.88;98386.25;5054593;28;19923;-40
2022/09/13 00:44:42;;;;;;;;;;;;;;;24.97;85.37;98381.19;5071400;28;19952;-40
2022/09/13 00:47:07;;;;;;;;;;;;;;;24.71;86.91;98379.38;5071063;28;20369;-40
2022/09/13 00:49:35;;;;;;;;;;;;;;;24.69;87.87;98369.97;5052900;28;19935;-40
2022/09/13 00:52:02;;;;;;;;;;;;;;;24.11;89.43;98372.13;5054584;28;19958;-40
2022/09/13 00:54:28;;;;;;;;;;;;;;;24.28;90.05;98361.75;5054019;28;19927;-40
2022/09/13 00:56:54;;;;;;;;;;;;;;;24.70;88.11;98356.69;5070725;28;20431;-40
2022/09/13 00:59:24;;;;;;;;;;;;;;;24.53;87.58;98355.72;5053154;28;20003;-40
2022/09/13 01:01:51;;;;;;;;;;;;;;;24.10;88.80;98359.94;5052124;28;19969;-40
2022/09/13 01:04:16;;;;;;;;;;;;;;;24.28;88.22;98361.75;5052071;28;19967;-40
2022/09/13 01:06:41;;;;;;;;;;;;;;;24.14;88.12;98361.31;5069527;28;20043;-40
2022/09/13 01:09:07;;;;;;;;;;;;;;;24.14;88.49;98358.66;5051956;28;19924;-40
2022/09/13 01:11:49;;;;;;;;;;;;;;;23.46;91.81;98356.47;5071730;28;19972;-40
2022/09/13 01:14:15;;;;;;;;;;;;;;;23.44;93.69;98361.03;5053473;28;20519;-40
2022/09/13 01:16:40;;;;;;;;;;;;;;;23.84;90.80;98345.91;5051218;28;20014;-40
2022/09/13 01:19:06;;;;;;;;;;;;;;;23.52;91.55;98350.63;5071385;28;20374;-40
2022/09/13 01:21:50;;;;;;;;;;;;;;;24.43;88.53;98333.91;5070504;28;20709;-41
2022/09/13 01:24:33;;;;;;;;;;;;;;;23.98;90.99;98334.84;5070007;28;19973;-41
2022/09/13 01:27:10;;;;;;;;;;;;;;;24.05;90.25;98330.66;5069591;28;20392;-40
2022/09/13 01:29:38;;;;;;;;;;;;;;;24.58;88.21;98332.38;5071691;28;20508;-40
2022/09/13 01:32:07;;;;;;;;;;;;;;;24.84;85.72;98326.31;5069905;28;19916;-40
2022/09/13 01:34:32;;;;;;;;;;;;;;;24.83;86.46;98324.63;5052615;28;19916;-40
2022/09/13 01:37:02;;;;;;;;;;;;;;;24.96;86.21;98330.31;5070067;28;20304;-40
2022/09/13 01:39:37;;;;;;;;;;;;;;;24.76;87.37;98327.06;5070382;28;20231;-40
2022/09/13 01:42:02;;;;;;;;;;;;;;;24.53;87.91;98329.41;5055429;28;19995;-40
2022/09/13 01:44:29;;;;;;;;;;;;;;;25.00;87.17;98326.38;5073794;28;19934;-40
2022/09/13 01:47:27;;;;;;;;;;;;;;;24.70;87.75;98326.88;5056224;28;20249;-40
2022/09/13 01:50:03;;;;;;;;;;;;;;;24.45;90.57;98339.84;5038474;28;19920;-40
2022/09/13 01:52:34;;;;;;;;;;;;;;;24.56;88.52;98334.38;5056469;28;20289;-40
2022/09/13 01:55:08;;;;;;;;;;;;;;;24.90;88.40;98323.03;5074962;28;19920;-40
2022/09/13 01:57:43;;;;;;;;;;;;;;;24.77;89.27;98335.78;5073871;28;19923;-40
2022/09/13 02:00:13;;;;;;;;;;;;;;;24.64;88.29;98317.78;5073688;28;20006;-40
2022/09/13 02:02:49;;;;;;;;;;;;;;;24.51;88.45;98333.16;5074276;28;20399;-40
2022/09/13 02:05:18;;;;;;;;;;;;;;;23.99;90.32;98337.34;5075620;28;19924;-40
2022/09/13 02:07:45;;;;;;;;;;;;;;;24.23;91.40;98337.72;5048786;28;19927;-40
2022/09/13 02:10:12;;;;;;;;;;;;;;;24.87;88.08;98331.25;5055710;28;20344;-40
2022/09/13 02:12:37;;;;;;;;;;;;;;;24.79;87.45;98333.81;5055624;28;20448;-40
2022/09/13 02:15:10;;;;;;;;;;;;;;;24.54;88.49;98331.06;5055119;28;20002;-40
2022/09/13 02:17:40;;;;;;;;;;;;;;;24.68;87.58;98337.56;5056160;28;20350;-40
2022/09/13 02:20:07;;;;;;;;;;;;;;;24.47;87.96;98330.00;5054792;28;20373;-40
2022/09/13 02:22:33;;;;;;;;;;;;;;;24.98;87.50;98322.25;5055897;28;20270;-40
2022/09/13 02:25:01;;;;;;;;;;;;;;;24.03;89.46;98332.59;5054905;28;19920;-40
2022/09/13 02:27:27;;;;;;;;;;;;;;;23.46;93.98;98339.88;5073884;28;20064;-40
2022/09/13 02:29:54;;;;;;;;;;;;;;;23.74;93.13;98335.41;5057266;28;19920;-40
2022/09/13 02:32:22;;;;;;;;;;;;;;;23.66;93.31;98341.41;5065323;28;19972;-40
2022/09/13 02:34:53;;;;;;;;;;;;;;;23.77;92.88;98335.97;5074130;28;20335;-40
2022/09/13 02:37:18;;;;;;;;;;;;;;;23.94;92.62;98333.50;5056126;28;20012;-40
2022/09/13 02:39:45;;;;;;;;;;;;;;;23.89;94.18;98343.66;5074475;28;20145;-40
2022/09/13 02:42:16;;;;;;;;;;;;;;;24.68;89.77;98331.44;5055037;28;20028;-40
2022/09/13 02:44:42;;;;;;;;;;;;;;;24.34;89.15;98335.66;5075147;28;19928;-40
2022/09/13 02:47:26;;;;;;;;;;;;;;;24.56;88.80;98330.88;5055123;28;19924;-40
2022/09/13 02:49:54;;;;;;;;;;;;;;;24.50;89.55;98334.16;5074975;28;19920;-40
2022/09/13 02:52:38;;;;;;;;;;;;;;;24.40;90.68;98328.94;5054587;28;19987;-40
2022/09/13 02:55:20;;;;;;;;;;;;;;;24.96;87.92;98329.50;5075334;28;19923;-40
2022/09/13 02:58:04;;;;;;;;;;;;;;;25.14;85.56;98321.50;5056169;28;19927;-40
2022/09/13 03:00:30;;;;;;;;;;;;;;;24.67;87.68;98321.91;5074180;28;19942;-40
2022/09/13 03:02:55;;;;;;;;;;;;;;;25.10;85.96;98323.63;5073895;28;20646;-40
2022/09/13 03:05:21;;;;;;;;;;;;;;;24.96;87.68;98319.78;5055983;28;19915;-40
2022/09/13 03:07:46;;;;;;;;;;;;;;;24.63;88.75;98324.03;5074172;28;20340;-40
2022/09/13 03:10:12;;;;;;;;;;;;;;;24.40;89.09;98324.53;5056823;28;20797;-40
2022/09/13 03:12:37;;;;;;;;;;;;;;;24.10;90.37;98332.81;5056675;28;19924;-40
2022/09/13 03:15:02;;;;;;;;;;;;;;;23.55;91.87;98329.31;5073540;28;19966;-40
2022/09/13 03:17:28;;;;;;;;;;;;;;;23.90;92.01;98329.50;5074067;28;19920;-40
2022/09/13 03:19:58;;;;;;;;;;;;;;;24.27;89.34;98320.59;5074557;28;20300;-40
2022/09/13 03:22:31;;;;;;;;;;;;;;;24.25;90.21;98315.53;5057239;28;19923;-40
2022/09/13 03:25:03;;;;;;;;;;;;;;;24.79;86.86;98308.34;5054706;28;19932;-40
2022/09/13 03:27:31;;;;;;;;;;;;;;;25.33;84.92;98310.72;5074007;28;19955;-40
2022/09/13 03:30:02;;;;;;;;;;;;;;;24.92;85.61;98317.59;5067889;28;19917;-40
2022/09/13 03:32:36;;;;;;;;;;;;;;;25.19;85.07;98308.69;5073131;28;19993;-40
2022/09/13 03:35:02;;;;;;;;;;;;;;;25.07;85.01;98304.69;5074078;28;20010;-40
2022/09/13 03:37:47;;;;;;;;;;;;;;;25.25;85.43;98306.25;5073906;28;19995;-40
2022/09/13 03:40:13;;;;;;;;;;;;;;;25.31;84.21;98304.78;5071592;28;19959;-40
2022/09/13 03:42:57;;;;;;;;;;;;;;;25.39;84.06;98307.44;5056087;28;19924;-40
2022/09/13 03:45:23;;;;;;;;;;;;;;;24.93;85.36;98304.28;5073116;28;19930;-40
2022/09/13 03:47:49;;;;;;;;;;;;;;;24.83;88.29;98314.91;5073814;28;19931;-40
2022/09/13 03:50:18;;;;;;;;;;;;;;;24.41;88.93;98327.97;5053561;28;19925;-40
2022/09/13 03:52:44;;;;;;;;;;;;;;;24.82;89.10;98323.00;5053787;28;19916;-40
2022/09/13 03:55:09;;;;;;;;;;;;;;;24.91;88.66;98316.78;5054970;28;19931;-41
2022/09/13 03:57:34;;;;;;;;;;;;;;;24.48;89.05;98326.41;5073957;28;19927;-41
2022/09/13 04:00:00;;;;;;;;;;;;;;;24.89;90.09;98317.94;5057080;28;19916;-40
2022/09/13 04:02:25;;;;;;;;;;;;;;;25.16;87.90;98319.53;5074069;28;20070;-40
2022/09/13 04:04:50;;;;;;;;;;;;;;;25.27;87.05;98321.88;5074124;28;20019;-40
2022/09/13 04:07:16;;;;;;;;;;;;;;;25.27;86.75;98318.44;5054859;28;19958;-40
2022/09/13 04:09:42;;;;;;;;;;;;;;;25.09;89.12;98321.97;5055186;28;19916;-40
2022/09/13 04:12:09;;;;;;;;;;;;;;;25.07;90.56;98320.50;5073247;28;20397;-41
2022/09/13 04:14:34;;;;;;;;;;;;;;;25.09;90.74;98329.03;5073285;28;19966;-40
2022/09/13 04:16:59;;;;;;;;;;;;;;;25.03;91.18;98326.06;5073119;28;20007;-40
2022/09/13 04:19:24;;;;;;;;;;;;;;;25.24;90.36;98323.03;5073546;28;19963;-40
2022/09/13 04:21:50;;;;;;;;;;;;;;;24.79;89.51;98318.03;5073075;28;19963;-40
2022/09/13 04:24:16;;;;;;;;;;;;;;;25.13;90.83;98317.19;5073030;28;19967;-41
2022/09/13 04:26:41;;;;;;;;;;;;;;;24.03;93.34;98319.44;5053485;28;19920;-40
2022/09/13 04:29:06;;;;;;;;;;;;;;;24.42;93.02;98317.28;5073272;28;20461;-40
2022/09/13 04:31:31;;;;;;;;;;;;;;;23.92;94.83;98309.16;5071633;28;19927;-40
2022/09/13 04:33:57;;;;;;;;;;;;;;;24.01;95.77;98308.25;5072110;28;19920;-40
2022/09/13 04:36:22;;;;;;;;;;;;;;;24.47;94.09;98303.69;5072203;28;20057;-40
2022/09/13 04:38:48;;;;;;;;;;;;;;;24.79;94.82;98310.13;5070807;28;20800;-41
2022/09/13 04:41:13;;;;;;;;;;;;;;;24.68;94.19;98307.75;5073424;28;19927;-41
2022/09/13 04:43:38;;;;;;;;;;;;;;;24.96;93.98;98297.88;5072767;28;19920;-40
2022/09/13 04:46:03;;;;;;;;;;;;;;;24.79;95.69;98307.50;5072361;28;20317;-40
2022/09/13 04:48:29;;;;;;;;;;;;;;;24.86;94.83;98305.91;5073769;28;20363;-40
2022/09/13 04:50:59;;;;;;;;;;;;;;;24.88;95.19;98296.00;5073164;28;19973;-40
2022/09/13 04:53:25;;;;;;;;;;;;;;;24.81;94.88;98310.78;5073742;28;19912;-41
2022/09/13 04:55:50;;;;;;;;;;;;;;;25.05;93.63;98304.84;5072371;28;20472;-41
2022/09/13 04:58:15;;;;;;;;;;;;;;;24.84;93.47;98311.31;5072093;28;19930;-41
2022/09/13 05:00:40;;;;;;;;;;;;;;;24.60;95.99;98325.16;5072481;28;19920;-40
2022/09/13 05:03:06;;;;;;;;;;;;;;;24.87;94.55;98320.72;5072983;28;19995;-40
2022/09/13 05:05:31;;;;;;;;;;;;;;;24.86;94.89;98312.97;5072911;28;20293;-48
2022/09/13 05:07:56;;;;;;;;;;;;;;;24.91;96.48;98322.06;5053536;28;20812;-48
2022/09/13 05:10:22;;;;;;;;;;;;;;;24.57;94.42;98320.22;5052748;28;19943;-50
2022/09/13 05:12:47;;;;;;;;;;;;;;;24.38;97.64;98315.94;5053818;28;19923;-47
2022/09/13 05:15:12;;;;;;;;;;;;;;;24.37;97.05;98310.84;5071810;28;19916;-50
2022/09/13 05:17:38;;;;;;;;;;;;;;;24.49;96.89;98306.97;5032200;28;19973;-49
2022/09/13 05:20:04;;;;;;;;;;;;;;;24.49;95.20;98306.16;5054921;28;19940;-50
2022/09/13 05:22:29;;;;;;;;;;;;;;;24.74;95.69;98309.78;5076155;28;20584;-47
2022/09/13 05:24:55;;;;;;;;;;;;;;;24.64;94.80;98302.00;5076927;28;19927;-46
2022/09/13 05:27:20;;;;;;;;;;;;;;;24.59;95.90;98307.72;5075781;28;19916;-48
2022/09/13 05:29:46;;;;;;;;;;;;;;;24.73;94.63;98301.06;5075192;28;19946;-47
2022/09/13 05:32:11;;;;;;;;;;;;;;;24.81;95.40;98300.25;5057561;28;19927;-48
2022/09/13 05:34:36;;;;;;;;;;;;;;;25.10;93.72;98307.00;5076064;28;19974;-47
2022/09/13 05:37:02;;;;;;;;;;;;;;;25.01;93.01;98304.31;5075044;28;19928;-49
2022/09/13 05:39:27;;;;;;;;;;;;;;;24.82;93.59;98304.56;5056261;28;19931;-48
2022/09/13 05:41:52;;;;;;;;;;;;;;;24.82;94.28;98302.75;5073440;28;20500;-48
2022/09/13 05:44:17;;;;;;;;;;;;;;;24.97;93.38;98296.88;5074544;28;20378;-48
2022/09/13 05:46:45;;;;;;;;;;;;;;;24.66;94.22;98302.66;5075461;28;20377;-49
2022/09/13 05:49:11;;;;;;;;;;;;;;;24.82;94.01;98309.84;5076359;28;19923;-49
2022/09/13 05:51:36;;;;;;;;;;;;;;;24.81;94.16;98306.38;5055766;28;20002;-48
2022/09/13 05:54:02;;;;;;;;;;;;;;;23.99;97.58;98320.72;5075299;28;19942;-41
2022/09/13 05:56:27;;;;;;;;;;;;;;;24.24;97.88;98313.03;5056988;28;20003;-40
2022/09/13 05:58:53;;;;;;;;;;;;;;;24.77;95.27;98304.19;5075918;28;19912;-41
2022/09/13 06:01:20;;;;;;;;;;;;;;;25.00;92.70;98310.56;5071697;28;20331;-41
2022/09/13 06:03:48;;;;;;;;;;;;;;;24.63;94.38;98318.75;5065411;28;19924;-41
2022/09/13 06:06:13;;;;;;;;;;;;;;;24.67;94.34;98314.00;5056233;28;19923;-40
2022/09/13 06:08:39;;;;;;;;;;;;;;;24.77;95.92;98315.56;5075668;28;19916;-41
2022/09/13 06:11:05;;;;;;;;;;;;;;;24.73;93.94;98308.13;5074828;28;20223;-41
2022/09/13 06:13:30;;;;;;;;;;;;;;;24.48;96.85;98315.88;5073722;28;19931;-40
2022/09/13 06:15:56;;;;;;;;;;;;;;;25.13;92.36;98304.03;5074854;28;20031;-41
2022/09/13 06:18:22;;;;;;;;;;;;;;;24.86;94.93;98313.81;5056156;28;20388;-41
2022/09/13 06:20:47;;;;;;;;;;;;;;;24.95;94.11;98310.22;5073737;28;19964;-40
2022/09/13 06:23:13;;;;;;;;;;;;;;;25.09;93.84;98314.06;5071599;28;19959;-41
2022/09/13 06:25:38;;;;;;;;;;;;;;;24.79;94.90;98313.59;5054378;28;19916;-41
2022/09/13 06:28:03;;;;;;;;;;;;;;;24.80;95.70;98317.06;5074449;28;20198;-41
2022/09/13 06:30:29;;;;;;;;;;;;;;;24.99;95.70;98311.53;5073002;28;19920;-41
2022/09/13 06:32:57;;;;;;;;;;;;;;;24.94;95.29;98311.19;5073177;28;19973;-40
2022/09/13 06:35:22;;;;;;;;;;;;;;;24.89;94.29;98310.84;5073751;28;20492;-40
2022/09/13 06:37:47;;;;;;;;;;;;;;;25.33;93.16;98310.72;5073775;28;19969;-40
2022/09/13 06:40:13;;;;;;;;;;;;;;;25.29;93.47;98306.75;5073905;28;20773;-41
2022/09/13 06:42:38;;;;;;;;;;;;;;;25.31;93.27;98314.50;5071567;28;19916;-41
2022/09/13 06:45:03;;;;;;;;;;;;;;;25.16;95.46;98322.19;5070218;28;19924;-41
2022/09/13 06:47:29;;;;;;;;;;;;;;;25.18;93.43;98317.53;5070757;28;20348;-41
2022/09/13 06:49:54;;;;;;;;;;;;;;;25.46;92.44;98326.91;5052263;28;19916;-41
2022/09/13 06:52:19;;;;;;;;;;;;;;;25.48;94.68;98328.53;5074053;28;19916;-41
2022/09/13 06:54:44;;;;;;;;;;;;;;;25.41;94.46;98328.41;5074219;28;19923;-41
2022/09/13 06:57:10;;;;;;;;;;;;;;;25.46;93.02;98329.53;5071425;28;19998;-41
2022/09/13 06:59:35;;;;;;;;;;;;;;;25.54;93.29;98325.28;5067850;28;19921;-41
2022/09/13 07:02:00;;;;;;;;;;;;;;;25.59;91.32;98325.63;5068548;28;20442;-41
2022/09/13 07:04:30;;;;;;;;;;;;;;;25.67;92.61;98323.00;5074092;28;20456;-41
2022/09/13 07:06:55;;;;;;;;;;;;;;;25.52;95.11;98335.16;5073056;28;19916;-41
2022/09/13 07:09:21;;;;;;;;;;;;;;;25.78;93.01;98325.34;5053855;28;19920;-41
2022/09/13 07:11:47;;;;;;;;;;;;;;;26.00;93.26;98323.06;5072764;28;19920;-41
2022/09/13 07:14:13;;;;;;;;;;;;;;;26.11;92.18;98316.66;5055537;28;20474;-41
2022/09/13 07:16:39;;;;;;;;;;;;;;;26.28;92.56;98321.75;5054874;28;19912;-41
2022/09/13 07:19:05;;;;;;;;;;;;;;;26.37;91.92;98319.94;5073424;28;19939;-41
2022/09/13 07:21:31;;;;;;;;;;;;;;;26.17;95.13;98334.47;5073452;28;19916;-41
2022/09/13 07:23:56;;;;;;;;;;;;;;;26.33;93.54;98328.38;5073884;28;19969;-41
2022/09/13 07:26:22;;;;;;;;;;;;;;;26.49;91.90;98328.34;5072583;28;19920;-41
2022/09/13 07:28:48;;;;;;;;;;;;;;;26.40;93.55;98330.16;5073266;28;19919;-41
2022/09/13 07:31:19;;;;;;;;;;;;;;;26.53;94.53;98328.84;5073555;28;19924;-41
2022/09/13 07:33:44;;;;;;;;;;;;;;;26.86;92.01;98326.97;5073783;28;20261;-41
2022/09/13 07:36:10;;;;;;;;;;;;;;;26.66;91.22;98331.81;5072457;28;19916;-41
2022/09/13 07:38:36;;;;;;;;;;;;;;;27.09;90.48;98325.22;5070293;28;19939;-41
2022/09/13 07:41:03;;;;;;;;;;;;;;;26.94;90.65;98340.19;5073458;28;19916;-41
2022/09/13 07:43:29;;;;;;;;;;;;;;;26.27;93.64;98346.53;5053685;28;19920;-41
2022/09/13 07:45:57;;;;;;;;;;;;;;;26.93;90.46;98343.78;5072681;28;20041;-41
2022/09/13 07:48:23;;;;;;;;;;;;;;;26.70;88.62;98339.22;5071762;28;20690;-41
2022/09/13 07:50:59;;;;;;;;;;;;;;;27.28;88.99;98344.38;5052636;28;19931;-41
2022/09/13 07:53:24;;;;;;;;;;;;;;;26.68;90.39;98349.13;5073154;28;19920;-41
2022/09/13 07:55:49;;;;;;;;;;;;;;;26.83;88.87;98345.81;5071363;28;20345;-41
2022/09/13 07:58:14;;;;;;;;;;;;;;;26.93;90.62;98351.72;5073039;28;20545;-41
2022/09/13 08:00:40;;;;;;;;;;;;;;;26.88;88.39;98354.88;5071691;28;21198;-41
2022/09/13 08:03:05;;;;;;;;;;;;;;;27.03;86.38;98351.56;5054812;28;20612;-41
2022/09/13 08:05:31;;;;;;;;;;;;;;;27.66;85.62;98353.25;5072363;28;20369;-41
2022/09/13 08:07:56;;;;;;;;;;;;;;;27.06;86.89;98361.78;5053428;28;19916;-41
2022/09/13 08:10:21;;;;;;;;;;;;;;;26.91;89.47;98365.13;5072576;28;19920;-41
2022/09/13 08:12:47;;;;;;;;;;;;;;;26.85;90.12;98364.97;5072971;28;19927;-41
2022/09/13 08:15:12;;;;;;;;;;;;;;;27.79;85.34;98347.41;5072377;28;19959;-41
2022/09/13 08:17:37;;;;;;;;;;;;;;;27.56;85.82;98357.13;5072586;28;20016;-41
2022/09/13 08:20:03;;;;;;;;;;;;;;;28.03;84.54;98354.41;5071869;28;19916;-41
2022/09/13 08:22:28;;;;;;;;;;;;;;;27.36;87.27;98360.19;5073121;28;19924;-41
2022/09/13 08:24:53;;;;;;;;;;;;;;;27.82;85.44;98362.09;5072132;28;20487;-41
2022/09/13 08:27:18;;;;;;;;;;;;;;;29.04;83.86;98357.63;5071692;28;19923;-41
2022/09/13 08:29:44;;;;;;;;;;;;;;;29.64;79.86;98362.88;5073227;28;19912;-41
2022/09/13 08:32:09;;;;;;;;;;;;;;;28.41;78.37;98369.47;5072310;28;19920;-41
2022/09/13 08:34:35;;;;;;;;;;;;;;;28.25;82.21;98373.91;5071914;28;19923;-41
2022/09/13 08:37:00;;;;;;;;;;;;;;;28.47;82.69;98371.47;5071928;28;20289;-41
2022/09/13 08:39:25;;;;;;;;;;;;;;;27.73;86.20;98372.75;5072100;28;19967;-41
2022/09/13 08:42:14;;;;;;;;;;;;;;;28.50;82.96;98371.09;5071576;28;19920;-41
2022/09/13 08:44:42;;;;;;;;;;;;;;;27.26;87.34;98378.91;5061138;28;19989;-41
2022/09/13 08:47:07;;;;;;;;;;;;;;;28.01;86.36;98379.38;5054504;28;19916;-41
2022/09/13 08:49:33;;;;;;;;;;;;;;;27.56;88.23;98378.31;5072290;28;19923;-41
2022/09/13 08:52:04;;;;;;;;;;;;;;;26.78;90.70;98379.84;5053435;28;19927;-41
2022/09/13 08:54:29;;;;;;;;;;;;;;;26.73;92.07;98376.88;5056123;28;20369;-41
2022/09/13 08:56:54;;;;;;;;;;;;;;;28.41;86.14;98366.84;5075823;28;19912;-41
2022/09/13 08:59:32;;;;;;;;;;;;;;;27.51;85.89;98366.41;5076601;28;20262;-41
2022/09/13 09:01:57;;;;;;;;;;;;;;;27.00;93.07;98365.91;5074574;28;19920;-41
2022/09/13 09:04:25;;;;;;;;;;;;;;;27.58;90.66;98360.44;5076528;28;19927;-41
2022/09/13 09:07:10;;;;;;;;;;;;;;;27.77;87.87;98359.16;5076180;28;19920;-41
2022/09/13 09:09:39;;;;;;;;;;;;;;;28.10;86.93;98357.13;5057869;28;20502;-41
2022/09/13 09:12:13;;;;;;;;;;;;;;;27.54;88.22;98362.59;5041633;28;20504;-41
2022/09/13 09:14:40;;;;;;;;;;;;;;;26.85;91.52;98373.72;5058244;28;19920;-41
2022/09/13 09:17:06;;;;;;;;;;;;;;;26.80;92.29;98368.13;5076155;28;19916;-41
2022/09/13 09:19:39;;;;;;;;;;;;;;;26.31;92.48;98367.31;5057232;28;19938;-41
2022/09/13 09:22:06;;;;;;;;;;;;;;;26.82;93.97;98373.22;5075861;28;19942;-41
2022/09/13 09:24:32;;;;;;;;;;;;;;;27.91;91.27;98369.03;5055527;28;19927;-41
2022/09/13 09:27:13;;;;;;;;;;;;;;;27.10;89.88;98371.00;5074706;28;20014;-41
2022/09/13 09:29:42;;;;;;;;;;;;;;;27.46;91.10;98371.41;5075141;28;20011;-41
2022/09/13 09:32:17;;;;;;;;;;;;;;;27.85;88.49;98367.06;5074255;28;19924;-42
2022/09/13 09:34:50;;;;;;;;;;;;;;;28.18;85.62;98367.66;5056652;28;19920;-41
2022/09/13 09:37:19;;;;;;;;;;;;;;;27.31;88.31;98365.19;5075596;28;19916;-41
2022/09/13 09:39:45;;;;;;;;;;;;;;;27.68;91.03;98366.31;5075316;28;19916;-41
2022/09/13 09:42:15;;;;;;;;;;;;;;;28.38;86.55;98356.59;5058231;28;20303;-41
2022/09/13 09:44:41;;;;;;;;;;;;;;;29.53;79.43;98351.72;5075354;28;20588;-41
2022/09/13 09:47:17;;;;;;;;;;;;;;;29.45;79.62;98346.56;5056724;28;19916;-41
2022/09/13 09:52:39;;;;;;;;;;;;;;;28.95;83.95;98348.13;5069234;28;19927;-41
2022/09/13 09:55:34;;;;;;;;;;;;;;;28.72;84.73;98348.19;5073797;28;19920;-41
2022/09/13 09:58:00;;;;;;;;;;;;;;;29.15;83.98;98343.94;5057223;28;19951;-47
2022/09/13 10:00:30;;;;;;;;;;;;;;;29.65;77.51;98332.66;5073367;28;19923;-47
2022/09/13 10:03:02;;;;;;;;;;;;;;;29.17;84.12;98336.63;5067430;28;19923;-47
2022/09/13 10:05:27;;;;;;;;;;;;;;;29.92;81.33;98326.66;5054949;28;19920;-48
2022/09/13 10:07:53;;;;;;;;;;;;;;;29.97;79.78;98332.22;5054623;28;19916;-48
2022/09/13 10:10:19;;;;;;;;;;;;;;;30.11;79.46;98335.84;5047216;28;19924;-50
2022/09/13 10:12:46;;;;;;;;;;;;;;;29.70;76.57;98332.97;5074453;28;19963;-48
2022/09/13 10:15:14;;;;;;;;;;;;;;;28.09;85.06;98343.09;5048517;28;19931;-48
2022/09/13 10:17:39;;;;;;;;;;;;;;;29.60;82.45;98336.72;5072353;28;19916;-50
2022/09/13 10:20:14;;;;;;;;;;;;;;;28.89;81.13;98338.25;5074227;28;19963;-49
2022/09/13 10:22:41;;;;;;;;;;;;;;;29.77;82.00;98339.19;5070848;28;19927;-51
2022/09/13 10:25:13;;;;;;;;;;;;;;;30.17;78.83;98342.19;5073147;28;19920;-50
2022/09/13 10:27:41;;;;;;;;;;;;;;;30.09;80.43;98339.69;5072831;28;20035;-48
2022/09/13 10:30:07;;;;;;;;;;;;;;;30.84;73.02;98333.78;5055031;28;19920;-48
2022/09/13 10:32:32;;;;;;;;;;;;;;;28.65;83.78;98347.28;5055754;28;19923;-49
2022/09/13 10:35:17;;;;;;;;;;;;;;;29.26;81.83;98339.97;5074761;28;20617;-51
2022/09/13 10:37:43;;;;;;;;;;;;;;;31.22;74.65;98341.31;5052472;28;20467;-48
2022/09/13 10:40:43;;;;;;;;;;;;;;;29.67;80.83;98351.88;5069728;28;20022;-49
2022/09/13 10:43:12;;;;;;;;;;;;;;;31.16;73.19;98342.13;4979198;28;19921;-49
2022/09/13 10:45:37;;;;;;;;;;;;;;;29.90;74.89;98341.97;5039297;28;20450;-50
2022/09/13 10:48:12;;;;;;;;;;;;;;;29.45;80.66;98343.91;5055847;28;19958;-50
2022/09/13 10:50:38;;;;;;;;;;;;;;;29.36;82.29;98340.53;5073259;28;19930;-51
2022/09/13 10:53:04;;;;;;;;;;;;;;;30.99;77.68;98338.13;5074529;28;19920;-48
2022/09/13 10:55:33;;;;;;;;;;;;;;;31.04;74.25;98338.34;5055847;28;20006;-50
2022/09/13 10:58:02;;;;;;;;;;;;;;;29.90;77.63;98330.50;5074036;28;19927;-49
2022/09/13 11:00:31;;;;;;;;;;;;;;;31.08;77.50;98328.16;5073214;28;19931;-51
2022/09/13 11:03:05;;;;;;;;;;;;;;;32.40;70.22;98321.53;5055394;28;19916;-49
2022/09/13 11:05:53;;;;;;;;;;;;;;;30.64;75.84;98333.59;5072550;28;19920;-49
2022/09/13 11:08:22;;;;;;;;;;;;;;;29.72;75.91;98333.59;5034826;28;19916;-51
2022/09/13 11:10:49;;;;;;;;;;;;;;;30.43;77.80;98334.50;5073733;28;20315;-51
2022/09/13 11:13:27;;;;;;;;;;;;;;;28.98;77.86;98332.66;5055229;28;19916;-51
2022/09/13 11:15:52;;;;;;;;;;;;;;;28.83;83.54;98331.00;5073193;28;20400;-48
2022/09/13 11:18:26;;;;;;;;;;;;;;;31.03;77.15;98318.13;5073955;28;20039;-48
2022/09/13 11:21:00;;;;;;;;;;;;;;;30.87;77.23;98315.78;5073376;28;19927;-51
2022/09/13 11:23:28;;;;;;;;;;;;;;;29.77;81.20;98323.25;5073269;28;19928;-50
2022/09/13 11:25:59;;;;;;;;;;;;;;;29.43;83.20;98327.34;5062742;28;20065;-51
2022/09/13 11:28:31;;;;;;;;;;;;;;;30.75;77.90;98313.66;5069961;28;19920;-51
2022/09/13 11:31:09;;;;;;;;;;;;;;;29.24;85.27;98319.97;5071845;28;19916;-50
2022/09/13 11:33:37;;;;;;;;;;;;;;;29.45;83.33;98322.69;5074242;28;20015;-50
2022/09/13 11:36:21;;;;;;;;;;;;;;;31.07;81.44;98311.38;5072645;28;19920;-49
2022/09/13 11:38:55;;;;;;;;;;;;;;;29.65;82.39;98325.56;5073449;28;19920;-51
2022/09/13 11:41:29;;;;;;;;;;;;;;;30.33;83.24;98314.56;5073200;28;19912;-52
2022/09/13 11:43:57;;;;;;;;;;;;;;;29.90;81.10;98311.94;5071326;28;20592;-52
2022/09/13 11:46:23;;;;;;;;;;;;;;;31.53;78.27;98310.75;5072920;28;19920;-50
2022/09/13 11:48:57;;;;;;;;;;;;;;;31.10;72.36;98305.66;5072341;28;19919;-51
2022/09/13 11:51:36;;;;;;;;;;;;;;;29.93;80.96;98309.72;5072742;28;19973;-50
2022/09/13 11:54:05;;;;;;;;;;;;;;;29.34;82.93;98309.91;5053898;28;19923;-49
2022/09/13 11:56:33;;;;;;;;;;;;;;;29.08;86.36;98303.28;5070620;28;19967;-52
2022/09/13 11:58:58;;;;;;;;;;;;;;;29.59;81.92;98302.41;5071781;28;19920;-50
2022/09/13 12:01:27;;;;;;;;;;;;;;;30.62;83.71;98302.94;5073119;28;19946;-50
2022/09/13 12:03:52;;;;;;;;;;;;;;;30.38;77.20;98294.41;5053672;28;20725;-49
2022/09/13 12:06:47;;;;;;;;;;;;;;;29.90;81.22;98299.50;5071378;28;19931;-49
2022/09/13 12:09:14;;;;;;;;;;;;;;;29.15;82.24;98290.91;5055564;28;19924;-50
2022/09/13 12:11:43;;;;;;;;;;;;;;;29.41;83.00;98297.53;5054575;28;19920;-49
2022/09/13 12:14:13;;;;;;;;;;;;;;;30.28;84.63;98288.59;5053328;28;19928;-49
2022/09/13 12:16:47;;;;;;;;;;;;;;;29.85;79.31;98280.63;5054076;28;19962;-49
2022/09/13 12:19:16;;;;;;;;;;;;;;;32.91;75.65;98281.69;5072948;28;19969;-50
2022/09/13 12:21:43;;;;;;;;;;;;;;;30.65;75.85;98283.91;5070913;28;19913;-51
2022/09/13 12:24:14;;;;;;;;;;;;;;;30.37;79.07;98274.16;5068559;28;19967;-50
2022/09/13 12:26:51;;;;;;;;;;;;;;;32.14;74.92;98275.22;5071411;28;19984;-53
2022/09/13 12:29:18;;;;;;;;;;;;;;;33.87;68.46;98257.78;5071636;28;19916;-52
2022/09/13 12:31:43;;;;;;;;;;;;;;;31.74;66.95;98269.03;5054900;28;20401;-50
2022/09/13 12:34:10;;;;;;;;;;;;;;;31.41;74.64;98269.81;5071359;28;19920;-50
2022/09/13 12:36:50;;;;;;;;;;;;;;;29.99;81.85;98276.25;5053743;28;19920;-49
2022/09/13 12:39:25;;;;;;;;;;;;;;;31.43;79.77;98259.75;5072096;28;19916;-53
2022/09/13 12:42:02;;;;;;;;;;;;;;;32.12;73.03;98255.97;5071933;28;19916;-52
2022/09/13 12:44:34;;;;;;;;;;;;;;;29.67;79.50;98266.97;5052560;28;19928;-52
2022/09/13 12:47:20;;;;;;;;;;;;;;;31.21;77.27;98264.38;5071762;28;19956;-50
2022/09/13 12:49:51;;;;;;;;;;;;;;;32.55;69.79;98260.03;5072545;28;19919;-52
2022/09/13 12:52:30;;;;;;;;;;;;;;;30.05;78.53;98270.19;5071979;28;19951;-51
2022/09/13 12:55:18;;;;;;;;;;;;;;;30.40;80.71;98268.47;5036823;28;19963;-50
2022/09/13 12:57:43;;;;;;;;;;;;;;;29.66;85.77;98268.81;5052575;28;19920;-52